sensor_id;sensor_type;location;lat;lon;timestamp;P1;durP1;ratioP1;P2;durP2;ratioP2
817;SDS011;391;51.052;6.954;2022-10-31T00:02:02;8.53;;;7.73;;
817;SDS011;391;51.052;6.954;2022-10-31T00:04:06;10.83;;;8.10;;
817;SDS011;391;51.052;6.954;2022-10-31T00:06:10;8.43;;;7.73;;
817;SDS011;391;51.052;6.954;2022-10-31T00:08:13;8.40;;;7.37;;
817;SDS011;391;51.052;6.954;2022-10-31T00:10:16;10.50;;;8.17;;
817;SDS011;391;51.052;6.954;2022-10-31T00:12:20;9.70;;;6.70;;
817;SDS011;391;51.052;6.954;2022-10-31T00:14:25;9.47;;;7.47;;
817;SDS011;391;51.052;6.954;2022-10-31T00:16:28;13.50;;;8.57;;
817;SDS011;391;51.052;6.954;2022-10-31T00:18:32;9.03;;;7.20;;
817;SDS011;391;51.052;6.954;2022-10-31T00:20:35;10.17;;;7.80;;
817;SDS011;391;51.052;6.954;2022-10-31T00:22:39;8.30;;;7.50;;
817;SDS011;391;51.052;6.954;2022-10-31T00:24:43;9.20;;;6.80;;
817;SDS011;391;51.052;6.954;2022-10-31T00:26:46;14.60;;;9.20;;
817;SDS011;391;51.052;6.954;2022-10-31T00:28:49;12.17;;;7.10;;
817;SDS011;391;51.052;6.954;2022-10-31T00:30:54;9.03;;;6.57;;
817;SDS011;391;51.052;6.954;2022-10-31T00:33:02;9.00;;;6.90;;
817;SDS011;391;51.052;6.954;2022-10-31T00:35:07;7.23;;;6.53;;
817;SDS011;391;51.052;6.954;2022-10-31T00:37:10;7.13;;;6.10;;
817;SDS011;391;51.052;6.954;2022-10-31T00:39:14;8.57;;;7.77;;
817;SDS011;391;51.052;6.954;2022-10-31T00:41:17;7.43;;;6.33;;
817;SDS011;391;51.052;6.954;2022-10-31T00:43:21;9.30;;;7.80;;
817;SDS011;391;51.052;6.954;2022-10-31T00:45:24;10.27;;;9.20;;
817;SDS011;391;51.052;6.954;2022-10-31T00:47:29;8.77;;;7.10;;
817;SDS011;391;51.052;6.954;2022-10-31T00:49:33;7.53;;;6.30;;
817;SDS011;391;51.052;6.954;2022-10-31T00:51:37;6.37;;;5.80;;
817;SDS011;391;51.052;6.954;2022-10-31T00:53:41;6.77;;;6.07;;
817;SDS011;391;51.052;6.954;2022-10-31T00:55:44;11.70;;;6.47;;
817;SDS011;391;51.052;6.954;2022-10-31T00:57:49;8.97;;;7.57;;
817;SDS011;391;51.052;6.954;2022-10-31T00:59:53;12.33;;;6.00;;
817;SDS011;391;51.052;6.954;2022-10-31T01:01:56;8.23;;;7.33;;
817;SDS011;391;51.052;6.954;2022-10-31T01:04:01;6.03;;;5.43;;
817;SDS011;391;51.052;6.954;2022-10-31T01:06:07;7.00;;;6.40;;
817;SDS011;391;51.052;6.954;2022-10-31T01:08:13;8.50;;;7.70;;
817;SDS011;391;51.052;6.954;2022-10-31T01:10:17;6.53;;;5.93;;
817;SDS011;391;51.052;6.954;2022-10-31T01:12:21;7.20;;;6.07;;
817;SDS011;391;51.052;6.954;2022-10-31T01:14:25;10.20;;;8.60;;
817;SDS011;391;51.052;6.954;2022-10-31T01:16:31;8.80;;;7.07;;
817;SDS011;391;51.052;6.954;2022-10-31T01:18:35;8.70;;;7.00;;
817;SDS011;391;51.052;6.954;2022-10-31T01:20:40;10.03;;;8.87;;
817;SDS011;391;51.052;6.954;2022-10-31T01:22:44;7.80;;;7.07;;
817;SDS011;391;51.052;6.954;2022-10-31T01:24:47;9.53;;;7.27;;
817;SDS011;391;51.052;6.954;2022-10-31T01:26:51;7.07;;;6.37;;
817;SDS011;391;51.052;6.954;2022-10-31T01:28:55;7.03;;;5.80;;
817;SDS011;391;51.052;6.954;2022-10-31T01:31:00;10.90;;;6.13;;
817;SDS011;391;51.052;6.954;2022-10-31T01:33:04;7.63;;;6.80;;
817;SDS011;391;51.052;6.954;2022-10-31T01:35:09;7.00;;;6.30;;
817;SDS011;391;51.052;6.954;2022-10-31T01:37:14;7.63;;;6.17;;
817;SDS011;391;51.052;6.954;2022-10-31T01:39:17;7.97;;;7.17;;
817;SDS011;391;51.052;6.954;2022-10-31T01:41:22;9.70;;;8.73;;
817;SDS011;391;51.052;6.954;2022-10-31T01:43:41;7.17;;;6.10;;
817;SDS011;391;51.052;6.954;2022-10-31T01:45:51;7.37;;;6.67;;
817;SDS011;391;51.052;6.954;2022-10-31T01:47:57;7.97;;;6.40;;
817;SDS011;391;51.052;6.954;2022-10-31T01:50:02;9.73;;;7.83;;
817;SDS011;391;51.052;6.954;2022-10-31T01:52:10;7.13;;;6.07;;
817;SDS011;391;51.052;6.954;2022-10-31T01:54:21;7.93;;;6.97;;
817;SDS011;391;51.052;6.954;2022-10-31T01:56:29;8.93;;;6.10;;
817;SDS011;391;51.052;6.954;2022-10-31T01:58:34;6.70;;;6.00;;
817;SDS011;391;51.052;6.954;2022-10-31T02:00:38;9.60;;;6.77;;
817;SDS011;391;51.052;6.954;2022-10-31T02:02:42;6.63;;;5.40;;
817;SDS011;391;51.052;6.954;2022-10-31T02:04:48;7.93;;;6.20;;
817;SDS011;391;51.052;6.954;2022-10-31T02:06:53;7.70;;;6.90;;
817;SDS011;391;51.052;6.954;2022-10-31T02:09:02;7.83;;;6.20;;
817;SDS011;391;51.052;6.954;2022-10-31T02:11:08;8.37;;;6.13;;
817;SDS011;391;51.052;6.954;2022-10-31T02:13:12;6.10;;;5.60;;
817;SDS011;391;51.052;6.954;2022-10-31T02:15:23;5.23;;;4.77;;
817;SDS011;391;51.052;6.954;2022-10-31T02:17:28;7.00;;;6.40;;
817;SDS011;391;51.052;6.954;2022-10-31T02:19:34;6.83;;;6.13;;
817;SDS011;391;51.052;6.954;2022-10-31T02:21:45;5.87;;;5.27;;
817;SDS011;391;51.052;6.954;2022-10-31T02:24:00;9.07;;;5.53;;
817;SDS011;391;51.052;6.954;2022-10-31T02:26:32;6.33;;;5.57;;
817;SDS011;391;51.052;6.954;2022-10-31T02:29:05;5.83;;;5.30;;
817;SDS011;391;51.052;6.954;2022-10-31T02:31:29;6.10;;;5.50;;
817;SDS011;391;51.052;6.954;2022-10-31T02:33:40;7.60;;;6.57;;
817;SDS011;391;51.052;6.954;2022-10-31T02:35:50;6.50;;;5.90;;
817;SDS011;391;51.052;6.954;2022-10-31T02:38:03;6.73;;;5.37;;
817;SDS011;391;51.052;6.954;2022-10-31T02:40:14;7.83;;;6.60;;
817;SDS011;391;51.052;6.954;2022-10-31T02:43:00;7.10;;;5.70;;
817;SDS011;391;51.052;6.954;2022-10-31T02:45:10;5.40;;;4.87;;
817;SDS011;391;51.052;6.954;2022-10-31T02:47:21;6.63;;;6.03;;
817;SDS011;391;51.052;6.954;2022-10-31T02:49:31;6.63;;;5.90;;
817;SDS011;391;51.052;6.954;2022-10-31T02:51:38;6.80;;;5.07;;
817;SDS011;391;51.052;6.954;2022-10-31T02:53:42;6.20;;;5.20;;
817;SDS011;391;51.052;6.954;2022-10-31T02:55:55;8.90;;;6.87;;
817;SDS011;391;51.052;6.954;2022-10-31T02:58:02;8.50;;;6.40;;
817;SDS011;391;51.052;6.954;2022-10-31T03:00:10;7.87;;;6.20;;
817;SDS011;391;51.052;6.954;2022-10-31T03:02:18;8.33;;;6.20;;
817;SDS011;391;51.052;6.954;2022-10-31T03:04:40;7.30;;;6.00;;
817;SDS011;391;51.052;6.954;2022-10-31T03:06:56;10.03;;;7.87;;
817;SDS011;391;51.052;6.954;2022-10-31T03:09:09;9.90;;;6.83;;
817;SDS011;391;51.052;6.954;2022-10-31T03:11:18;12.63;;;7.30;;
817;SDS011;391;51.052;6.954;2022-10-31T03:13:29;9.43;;;6.77;;
817;SDS011;391;51.052;6.954;2022-10-31T03:15:38;8.27;;;7.00;;
817;SDS011;391;51.052;6.954;2022-10-31T03:17:47;9.97;;;5.80;;
817;SDS011;391;51.052;6.954;2022-10-31T03:19:58;8.50;;;6.93;;
817;SDS011;391;51.052;6.954;2022-10-31T03:22:07;7.00;;;6.30;;
817;SDS011;391;51.052;6.954;2022-10-31T03:24:19;9.70;;;7.20;;
817;SDS011;391;51.052;6.954;2022-10-31T03:26:25;10.43;;;7.70;;
817;SDS011;391;51.052;6.954;2022-10-31T03:28:29;9.07;;;7.30;;
817;SDS011;391;51.052;6.954;2022-10-31T03:30:39;8.50;;;7.23;;
817;SDS011;391;51.052;6.954;2022-10-31T03:32:48;6.57;;;5.93;;
817;SDS011;391;51.052;6.954;2022-10-31T03:34:57;8.30;;;6.67;;
817;SDS011;391;51.052;6.954;2022-10-31T03:37:04;7.00;;;6.27;;
817;SDS011;391;51.052;6.954;2022-10-31T03:39:11;9.50;;;6.57;;
817;SDS011;391;51.052;6.954;2022-10-31T03:41:19;7.73;;;6.93;;
817;SDS011;391;51.052;6.954;2022-10-31T03:43:28;8.40;;;7.10;;
817;SDS011;391;51.052;6.954;2022-10-31T03:45:38;8.27;;;7.43;;
817;SDS011;391;51.052;6.954;2022-10-31T03:47:48;8.93;;;6.80;;
817;SDS011;391;51.052;6.954;2022-10-31T03:49:52;6.60;;;5.70;;
817;SDS011;391;51.052;6.954;2022-10-31T03:51:57;8.60;;;6.37;;
817;SDS011;391;51.052;6.954;2022-10-31T03:54:07;6.97;;;6.30;;
817;SDS011;391;51.052;6.954;2022-10-31T03:56:18;8.07;;;7.10;;
817;SDS011;391;51.052;6.954;2022-10-31T03:58:32;7.37;;;6.40;;
817;SDS011;391;51.052;6.954;2022-10-31T04:00:40;7.37;;;6.67;;
817;SDS011;391;51.052;6.954;2022-10-31T04:02:49;7.63;;;6.77;;
817;SDS011;391;51.052;6.954;2022-10-31T04:04:57;7.50;;;6.67;;
817;SDS011;391;51.052;6.954;2022-10-31T04:07:05;6.90;;;5.90;;
817;SDS011;391;51.052;6.954;2022-10-31T04:09:10;9.00;;;7.80;;
817;SDS011;391;51.052;6.954;2022-10-31T04:11:16;6.67;;;6.00;;
817;SDS011;391;51.052;6.954;2022-10-31T04:13:42;8.83;;;5.70;;
817;SDS011;391;51.052;6.954;2022-10-31T04:16:01;11.50;;;7.20;;
817;SDS011;391;51.052;6.954;2022-10-31T04:18:07;8.30;;;7.50;;
817;SDS011;391;51.052;6.954;2022-10-31T04:20:17;8.93;;;6.83;;
817;SDS011;391;51.052;6.954;2022-10-31T04:22:26;13.63;;;6.40;;
817;SDS011;391;51.052;6.954;2022-10-31T04:24:35;7.43;;;6.73;;
817;SDS011;391;51.052;6.954;2022-10-31T04:26:45;9.87;;;6.23;;
817;SDS011;391;51.052;6.954;2022-10-31T04:28:49;8.53;;;6.87;;
817;SDS011;391;51.052;6.954;2022-10-31T04:30:53;11.80;;;6.63;;
817;SDS011;391;51.052;6.954;2022-10-31T04:33:00;6.87;;;5.90;;
817;SDS011;391;51.052;6.954;2022-10-31T04:35:10;9.37;;;6.87;;
817;SDS011;391;51.052;6.954;2022-10-31T04:37:22;7.47;;;6.03;;
817;SDS011;391;51.052;6.954;2022-10-31T04:39:30;9.97;;;7.43;;
817;SDS011;391;51.052;6.954;2022-10-31T04:41:56;7.27;;;6.20;;
817;SDS011;391;51.052;6.954;2022-10-31T04:44:05;7.93;;;7.13;;
817;SDS011;391;51.052;6.954;2022-10-31T04:46:09;7.23;;;6.17;;
817;SDS011;391;51.052;6.954;2022-10-31T04:48:20;12.10;;;6.93;;
817;SDS011;391;51.052;6.954;2022-10-31T04:50:30;7.20;;;6.17;;
817;SDS011;391;51.052;6.954;2022-10-31T04:52:40;21.33;;;14.93;;
817;SDS011;391;51.052;6.954;2022-10-31T04:54:48;9.53;;;7.03;;
817;SDS011;391;51.052;6.954;2022-10-31T04:57:24;9.53;;;6.20;;
817;SDS011;391;51.052;6.954;2022-10-31T04:59:35;8.33;;;6.70;;
817;SDS011;391;51.052;6.954;2022-10-31T05:01:39;8.20;;;6.50;;
817;SDS011;391;51.052;6.954;2022-10-31T05:03:44;7.00;;;6.17;;
817;SDS011;391;51.052;6.954;2022-10-31T05:05:54;6.30;;;5.70;;
817;SDS011;391;51.052;6.954;2022-10-31T05:07:58;9.90;;;5.60;;
817;SDS011;391;51.052;6.954;2022-10-31T05:10:12;8.77;;;6.53;;
817;SDS011;391;51.052;6.954;2022-10-31T05:12:22;7.03;;;5.60;;
817;SDS011;391;51.052;6.954;2022-10-31T05:15:00;8.27;;;5.53;;
817;SDS011;391;51.052;6.954;2022-10-31T05:17:42;8.07;;;6.47;;
817;SDS011;391;51.052;6.954;2022-10-31T05:20:16;8.43;;;5.80;;
817;SDS011;391;51.052;6.954;2022-10-31T05:22:48;7.63;;;5.73;;
817;SDS011;391;51.052;6.954;2022-10-31T05:24:59;7.37;;;5.73;;
817;SDS011;391;51.052;6.954;2022-10-31T05:27:05;6.90;;;5.10;;
817;SDS011;391;51.052;6.954;2022-10-31T05:29:09;5.33;;;4.83;;
817;SDS011;391;51.052;6.954;2022-10-31T05:31:14;6.07;;;5.57;;
817;SDS011;391;51.052;6.954;2022-10-31T05:33:17;5.80;;;5.20;;
817;SDS011;391;51.052;6.954;2022-10-31T05:35:40;7.50;;;5.63;;
817;SDS011;391;51.052;6.954;2022-10-31T05:38:20;7.80;;;6.00;;
817;SDS011;391;51.052;6.954;2022-10-31T05:40:24;4.83;;;4.33;;
817;SDS011;391;51.052;6.954;2022-10-31T05:42:29;5.80;;;4.67;;
817;SDS011;391;51.052;6.954;2022-10-31T05:44:32;5.80;;;5.17;;
817;SDS011;391;51.052;6.954;2022-10-31T05:47:09;6.37;;;5.23;;
817;SDS011;391;51.052;6.954;2022-10-31T05:49:31;11.83;;;5.97;;
817;SDS011;391;51.052;6.954;2022-10-31T05:51:53;7.07;;;5.20;;
817;SDS011;391;51.052;6.954;2022-10-31T05:54:06;7.10;;;6.07;;
817;SDS011;391;51.052;6.954;2022-10-31T05:56:18;6.33;;;5.23;;
817;SDS011;391;51.052;6.954;2022-10-31T05:58:22;5.17;;;4.70;;
817;SDS011;391;51.052;6.954;2022-10-31T06:00:39;6.27;;;5.73;;
817;SDS011;391;51.052;6.954;2022-10-31T06:02:44;5.73;;;4.40;;
817;SDS011;391;51.052;6.954;2022-10-31T06:04:56;6.97;;;5.20;;
817;SDS011;391;51.052;6.954;2022-10-31T06:07:01;5.70;;;5.13;;
817;SDS011;391;51.052;6.954;2022-10-31T06:09:06;6.30;;;5.57;;
817;SDS011;391;51.052;6.954;2022-10-31T06:11:11;5.03;;;4.47;;
817;SDS011;391;51.052;6.954;2022-10-31T06:13:35;6.63;;;5.17;;
817;SDS011;391;51.052;6.954;2022-10-31T06:15:48;6.30;;;5.70;;
817;SDS011;391;51.052;6.954;2022-10-31T06:17:57;8.37;;;5.80;;
817;SDS011;391;51.052;6.954;2022-10-31T06:20:04;7.13;;;4.93;;
817;SDS011;391;51.052;6.954;2022-10-31T06:22:16;6.33;;;4.97;;
817;SDS011;391;51.052;6.954;2022-10-31T06:24:20;8.53;;;7.50;;
817;SDS011;391;51.052;6.954;2022-10-31T06:26:38;15.90;;;7.93;;
817;SDS011;391;51.052;6.954;2022-10-31T06:28:42;7.70;;;6.20;;
817;SDS011;391;51.052;6.954;2022-10-31T06:31:05;8.50;;;5.63;;
817;SDS011;391;51.052;6.954;2022-10-31T06:33:11;8.40;;;5.87;;
817;SDS011;391;51.052;6.954;2022-10-31T06:35:19;7.30;;;5.20;;
817;SDS011;391;51.052;6.954;2022-10-31T06:37:26;5.53;;;4.93;;
817;SDS011;391;51.052;6.954;2022-10-31T06:39:37;5.87;;;5.37;;
817;SDS011;391;51.052;6.954;2022-10-31T06:41:43;5.30;;;4.80;;
817;SDS011;391;51.052;6.954;2022-10-31T06:43:48;7.40;;;6.10;;
817;SDS011;391;51.052;6.954;2022-10-31T06:46:20;6.10;;;5.30;;
817;SDS011;391;51.052;6.954;2022-10-31T06:48:40;8.10;;;5.80;;
817;SDS011;391;51.052;6.954;2022-10-31T06:51:01;9.70;;;5.30;;
817;SDS011;391;51.052;6.954;2022-10-31T06:53:07;6.87;;;6.17;;
817;SDS011;391;51.052;6.954;2022-10-31T06:55:15;14.00;;;5.73;;
817;SDS011;391;51.052;6.954;2022-10-31T06:57:18;6.87;;;6.17;;
817;SDS011;391;51.052;6.954;2022-10-31T06:59:22;6.60;;;5.77;;
817;SDS011;391;51.052;6.954;2022-10-31T07:01:45;11.60;;;6.60;;
817;SDS011;391;51.052;6.954;2022-10-31T07:03:48;7.10;;;6.40;;
817;SDS011;391;51.052;6.954;2022-10-31T07:05:54;6.30;;;5.70;;
817;SDS011;391;51.052;6.954;2022-10-31T07:07:58;5.60;;;5.10;;
817;SDS011;391;51.052;6.954;2022-10-31T07:10:04;9.80;;;6.10;;
817;SDS011;391;51.052;6.954;2022-10-31T07:12:21;7.33;;;6.63;;
817;SDS011;391;51.052;6.954;2022-10-31T07:14:32;9.90;;;7.50;;
817;SDS011;391;51.052;6.954;2022-10-31T07:16:36;10.30;;;6.53;;
817;SDS011;391;51.052;6.954;2022-10-31T07:18:41;8.80;;;6.50;;
817;SDS011;391;51.052;6.954;2022-10-31T07:20:47;6.93;;;4.73;;
817;SDS011;391;51.052;6.954;2022-10-31T07:22:52;7.07;;;5.57;;
817;SDS011;391;51.052;6.954;2022-10-31T07:24:58;6.13;;;5.53;;
817;SDS011;391;51.052;6.954;2022-10-31T07:27:27;6.60;;;5.60;;
817;SDS011;391;51.052;6.954;2022-10-31T07:29:31;8.77;;;6.47;;
817;SDS011;391;51.052;6.954;2022-10-31T07:31:35;5.63;;;5.07;;
817;SDS011;391;51.052;6.954;2022-10-31T07:33:45;5.63;;;5.00;;
817;SDS011;391;51.052;6.954;2022-10-31T07:36:00;7.97;;;5.60;;
817;SDS011;391;51.052;6.954;2022-10-31T07:38:25;6.90;;;6.00;;
817;SDS011;391;51.052;6.954;2022-10-31T07:40:28;7.60;;;5.40;;
817;SDS011;391;51.052;6.954;2022-10-31T07:42:35;6.53;;;4.70;;
817;SDS011;391;51.052;6.954;2022-10-31T07:44:41;6.53;;;5.67;;
817;SDS011;391;51.052;6.954;2022-10-31T07:47:21;8.00;;;5.80;;
817;SDS011;391;51.052;6.954;2022-10-31T07:50:17;10.73;;;6.80;;
817;SDS011;391;51.052;6.954;2022-10-31T07:52:40;6.63;;;5.67;;
817;SDS011;391;51.052;6.954;2022-10-31T07:55:03;6.57;;;5.30;;
817;SDS011;391;51.052;6.954;2022-10-31T07:57:10;7.73;;;5.90;;
817;SDS011;391;51.052;6.954;2022-10-31T07:59:15;7.97;;;6.67;;
817;SDS011;391;51.052;6.954;2022-10-31T08:01:18;6.53;;;5.80;;
817;SDS011;391;51.052;6.954;2022-10-31T08:03:38;8.30;;;6.50;;
817;SDS011;391;51.052;6.954;2022-10-31T08:05:45;10.20;;;7.80;;
817;SDS011;391;51.052;6.954;2022-10-31T08:08:09;6.97;;;6.17;;
817;SDS011;391;51.052;6.954;2022-10-31T08:10:13;8.70;;;7.43;;
817;SDS011;391;51.052;6.954;2022-10-31T08:12:17;7.87;;;6.50;;
817;SDS011;391;51.052;6.954;2022-10-31T08:14:22;7.50;;;6.20;;
817;SDS011;391;51.052;6.954;2022-10-31T08:16:26;9.57;;;6.43;;
817;SDS011;391;51.052;6.954;2022-10-31T08:18:34;8.10;;;6.97;;
817;SDS011;391;51.052;6.954;2022-10-31T08:20:42;7.80;;;6.70;;
817;SDS011;391;51.052;6.954;2022-10-31T08:22:53;6.17;;;5.57;;
817;SDS011;391;51.052;6.954;2022-10-31T08:24:58;8.93;;;6.77;;
817;SDS011;391;51.052;6.954;2022-10-31T08:27:02;11.87;;;8.60;;
817;SDS011;391;51.052;6.954;2022-10-31T08:29:26;8.13;;;6.63;;
817;SDS011;391;51.052;6.954;2022-10-31T08:31:49;14.30;;;10.20;;
817;SDS011;391;51.052;6.954;2022-10-31T08:34:36;8.10;;;6.93;;
817;SDS011;391;51.052;6.954;2022-10-31T08:37:34;12.03;;;9.40;;
817;SDS011;391;51.052;6.954;2022-10-31T08:39:59;11.37;;;7.77;;
817;SDS011;391;51.052;6.954;2022-10-31T08:42:08;8.57;;;7.27;;
817;SDS011;391;51.052;6.954;2022-10-31T08:44:12;7.70;;;6.90;;
817;SDS011;391;51.052;6.954;2022-10-31T08:46:19;10.10;;;7.83;;
817;SDS011;391;51.052;6.954;2022-10-31T08:48:23;13.10;;;7.70;;
817;SDS011;391;51.052;6.954;2022-10-31T08:50:26;11.40;;;8.07;;
817;SDS011;391;51.052;6.954;2022-10-31T08:52:31;15.87;;;13.10;;
817;SDS011;391;51.052;6.954;2022-10-31T08:54:55;10.40;;;8.83;;
817;SDS011;391;51.052;6.954;2022-10-31T08:57:21;11.60;;;7.47;;
817;SDS011;391;51.052;6.954;2022-10-31T08:59:24;8.33;;;7.10;;
817;SDS011;391;51.052;6.954;2022-10-31T09:01:49;8.87;;;7.10;;
817;SDS011;391;51.052;6.954;2022-10-31T09:03:53;9.00;;;7.67;;
817;SDS011;391;51.052;6.954;2022-10-31T09:05:58;12.57;;;9.13;;
817;SDS011;391;51.052;6.954;2022-10-31T09:08:04;11.13;;;8.47;;
817;SDS011;391;51.052;6.954;2022-10-31T09:10:17;11.00;;;7.43;;
817;SDS011;391;51.052;6.954;2022-10-31T09:12:21;8.60;;;7.70;;
817;SDS011;391;51.052;6.954;2022-10-31T09:14:45;12.13;;;9.33;;
817;SDS011;391;51.052;6.954;2022-10-31T09:17:01;10.53;;;7.90;;
817;SDS011;391;51.052;6.954;2022-10-31T09:19:22;12.70;;;8.97;;
817;SDS011;391;51.052;6.954;2022-10-31T09:21:26;13.87;;;10.43;;
817;SDS011;391;51.052;6.954;2022-10-31T09:23:32;13.33;;;10.97;;
817;SDS011;391;51.052;6.954;2022-10-31T09:25:37;14.40;;;10.40;;
817;SDS011;391;51.052;6.954;2022-10-31T09:28:05;10.27;;;8.97;;
817;SDS011;391;51.052;6.954;2022-10-31T09:30:10;13.20;;;9.30;;
817;SDS011;391;51.052;6.954;2022-10-31T09:32:15;10.93;;;9.83;;
817;SDS011;391;51.052;6.954;2022-10-31T09:34:20;12.30;;;9.60;;
817;SDS011;391;51.052;6.954;2022-10-31T09:36:36;10.97;;;9.10;;
817;SDS011;391;51.052;6.954;2022-10-31T09:38:48;14.67;;;10.20;;
817;SDS011;391;51.052;6.954;2022-10-31T09:40:54;18.87;;;16.37;;
817;SDS011;391;51.052;6.954;2022-10-31T09:43:07;13.93;;;11.87;;
817;SDS011;391;51.052;6.954;2022-10-31T09:45:18;12.60;;;11.40;;
817;SDS011;391;51.052;6.954;2022-10-31T09:47:32;12.67;;;9.40;;
817;SDS011;391;51.052;6.954;2022-10-31T09:50:09;11.03;;;9.37;;
817;SDS011;391;51.052;6.954;2022-10-31T09:52:18;15.40;;;9.30;;
817;SDS011;391;51.052;6.954;2022-10-31T09:54:28;12.93;;;9.37;;
817;SDS011;391;51.052;6.954;2022-10-31T09:56:35;12.90;;;10.03;;
817;SDS011;391;51.052;6.954;2022-10-31T09:58:42;15.40;;;10.00;;
817;SDS011;391;51.052;6.954;2022-10-31T10:00:48;12.57;;;9.57;;
817;SDS011;391;51.052;6.954;2022-10-31T10:02:55;11.17;;;8.93;;
817;SDS011;391;51.052;6.954;2022-10-31T10:05:04;19.90;;;12.70;;
817;SDS011;391;51.052;6.954;2022-10-31T10:07:13;13.30;;;11.40;;
817;SDS011;391;51.052;6.954;2022-10-31T10:09:44;11.70;;;10.43;;
817;SDS011;391;51.052;6.954;2022-10-31T10:12:08;17.90;;;10.63;;
817;SDS011;391;51.052;6.954;2022-10-31T10:14:28;13.37;;;9.30;;
817;SDS011;391;51.052;6.954;2022-10-31T10:16:41;12.97;;;8.60;;
817;SDS011;391;51.052;6.954;2022-10-31T10:19:07;13.20;;;9.07;;
817;SDS011;391;51.052;6.954;2022-10-31T10:21:25;14.40;;;8.73;;
817;SDS011;391;51.052;6.954;2022-10-31T10:23:42;11.20;;;9.43;;
817;SDS011;391;51.052;6.954;2022-10-31T10:26:02;14.83;;;9.70;;
817;SDS011;391;51.052;6.954;2022-10-31T10:28:15;11.23;;;8.87;;
817;SDS011;391;51.052;6.954;2022-10-31T10:30:24;12.80;;;7.30;;
817;SDS011;391;51.052;6.954;2022-10-31T10:32:39;13.90;;;8.43;;
817;SDS011;391;51.052;6.954;2022-10-31T10:34:54;9.33;;;8.33;;
817;SDS011;391;51.052;6.954;2022-10-31T10:37:03;10.33;;;8.60;;
817;SDS011;391;51.052;6.954;2022-10-31T10:39:14;11.43;;;8.07;;
817;SDS011;391;51.052;6.954;2022-10-31T10:41:23;10.00;;;7.43;;
817;SDS011;391;51.052;6.954;2022-10-31T10:43:35;9.40;;;6.80;;
817;SDS011;391;51.052;6.954;2022-10-31T10:45:38;11.43;;;6.43;;
817;SDS011;391;51.052;6.954;2022-10-31T10:48:05;8.90;;;7.50;;
817;SDS011;391;51.052;6.954;2022-10-31T10:50:15;9.70;;;7.20;;
817;SDS011;391;51.052;6.954;2022-10-31T10:52:23;12.77;;;9.73;;
817;SDS011;391;51.052;6.954;2022-10-31T10:54:49;9.70;;;7.57;;
817;SDS011;391;51.052;6.954;2022-10-31T10:57:07;6.17;;;5.40;;
817;SDS011;391;51.052;6.954;2022-10-31T10:59:20;7.87;;;6.13;;
817;SDS011;391;51.052;6.954;2022-10-31T11:01:25;7.77;;;6.53;;
817;SDS011;391;51.052;6.954;2022-10-31T11:03:28;8.63;;;7.00;;
817;SDS011;391;51.052;6.954;2022-10-31T11:05:36;8.60;;;6.57;;
817;SDS011;391;51.052;6.954;2022-10-31T11:07:42;6.90;;;6.30;;
817;SDS011;391;51.052;6.954;2022-10-31T11:09:45;9.17;;;6.10;;
817;SDS011;391;51.052;6.954;2022-10-31T11:11:49;6.70;;;5.73;;
817;SDS011;391;51.052;6.954;2022-10-31T11:13:54;14.00;;;6.53;;
817;SDS011;391;51.052;6.954;2022-10-31T11:16:03;8.60;;;5.70;;
817;SDS011;391;51.052;6.954;2022-10-31T11:18:12;8.30;;;4.67;;
817;SDS011;391;51.052;6.954;2022-10-31T11:20:25;10.03;;;6.70;;
817;SDS011;391;51.052;6.954;2022-10-31T11:22:34;8.10;;;5.07;;
817;SDS011;391;51.052;6.954;2022-10-31T11:24:38;11.43;;;6.43;;
817;SDS011;391;51.052;6.954;2022-10-31T11:26:43;12.40;;;7.13;;
817;SDS011;391;51.052;6.954;2022-10-31T11:28:55;5.93;;;5.37;;
817;SDS011;391;51.052;6.954;2022-10-31T11:31:01;9.20;;;7.40;;
817;SDS011;391;51.052;6.954;2022-10-31T11:33:11;9.03;;;5.03;;
817;SDS011;391;51.052;6.954;2022-10-31T11:35:20;7.10;;;6.37;;
817;SDS011;391;51.052;6.954;2022-10-31T11:37:27;6.90;;;5.13;;
817;SDS011;391;51.052;6.954;2022-10-31T11:39:34;8.03;;;5.73;;
817;SDS011;391;51.052;6.954;2022-10-31T11:41:44;10.50;;;5.83;;
817;SDS011;391;51.052;6.954;2022-10-31T11:43:49;8.30;;;5.30;;
817;SDS011;391;51.052;6.954;2022-10-31T11:45:55;7.87;;;6.13;;
817;SDS011;391;51.052;6.954;2022-10-31T11:48:00;8.63;;;6.10;;
817;SDS011;391;51.052;6.954;2022-10-31T11:50:09;8.43;;;5.67;;
817;SDS011;391;51.052;6.954;2022-10-31T11:52:15;11.43;;;7.30;;
817;SDS011;391;51.052;6.954;2022-10-31T11:54:23;11.83;;;5.70;;
817;SDS011;391;51.052;6.954;2022-10-31T11:56:41;7.60;;;4.77;;
817;SDS011;391;51.052;6.954;2022-10-31T11:58:54;16.70;;;5.90;;
817;SDS011;391;51.052;6.954;2022-10-31T12:00:58;10.13;;;6.00;;
817;SDS011;391;51.052;6.954;2022-10-31T12:03:10;16.93;;;6.43;;
817;SDS011;391;51.052;6.954;2022-10-31T12:05:17;9.03;;;5.43;;
817;SDS011;391;51.052;6.954;2022-10-31T12:07:24;7.63;;;5.50;;
817;SDS011;391;51.052;6.954;2022-10-31T12:09:28;10.70;;;5.90;;
817;SDS011;391;51.052;6.954;2022-10-31T12:11:37;12.67;;;5.87;;
817;SDS011;391;51.052;6.954;2022-10-31T12:13:51;8.07;;;6.63;;
817;SDS011;391;51.052;6.954;2022-10-31T12:16:08;10.10;;;4.80;;
817;SDS011;391;51.052;6.954;2022-10-31T12:18:36;7.43;;;6.60;;
817;SDS011;391;51.052;6.954;2022-10-31T12:20:59;6.50;;;5.43;;
817;SDS011;391;51.052;6.954;2022-10-31T12:23:15;11.53;;;5.37;;
817;SDS011;391;51.052;6.954;2022-10-31T12:25:26;6.90;;;5.47;;
817;SDS011;391;51.052;6.954;2022-10-31T12:27:41;7.30;;;4.43;;
817;SDS011;391;51.052;6.954;2022-10-31T12:30:09;9.77;;;6.30;;
817;SDS011;391;51.052;6.954;2022-10-31T12:32:21;11.07;;;7.03;;
817;SDS011;391;51.052;6.954;2022-10-31T12:34:43;6.87;;;6.10;;
817;SDS011;391;51.052;6.954;2022-10-31T12:36:57;9.03;;;5.90;;
817;SDS011;391;51.052;6.954;2022-10-31T12:39:24;8.03;;;5.50;;
817;SDS011;391;51.052;6.954;2022-10-31T12:41:36;6.30;;;5.10;;
817;SDS011;391;51.052;6.954;2022-10-31T12:43:53;13.00;;;5.70;;
817;SDS011;391;51.052;6.954;2022-10-31T12:46:02;11.10;;;6.53;;
817;SDS011;391;51.052;6.954;2022-10-31T12:48:19;6.57;;;5.60;;
817;SDS011;391;51.052;6.954;2022-10-31T12:50:48;9.60;;;5.20;;
817;SDS011;391;51.052;6.954;2022-10-31T12:53:01;8.97;;;4.60;;
817;SDS011;391;51.052;6.954;2022-10-31T12:55:19;7.30;;;4.43;;
817;SDS011;391;51.052;6.954;2022-10-31T12:57:36;5.27;;;4.63;;
817;SDS011;391;51.052;6.954;2022-10-31T12:59:45;11.70;;;5.80;;
817;SDS011;391;51.052;6.954;2022-10-31T13:01:54;9.40;;;4.80;;
817;SDS011;391;51.052;6.954;2022-10-31T13:04:03;11.10;;;9.10;;
817;SDS011;391;51.052;6.954;2022-10-31T13:06:15;8.07;;;6.23;;
817;SDS011;391;51.052;6.954;2022-10-31T13:08:24;8.00;;;4.97;;
817;SDS011;391;51.052;6.954;2022-10-31T13:10:34;9.33;;;6.37;;
817;SDS011;391;51.052;6.954;2022-10-31T13:12:42;6.37;;;4.60;;
817;SDS011;391;51.052;6.954;2022-10-31T13:14:50;8.77;;;4.77;;
817;SDS011;391;51.052;6.954;2022-10-31T13:16:57;8.50;;;4.80;;
817;SDS011;391;51.052;6.954;2022-10-31T13:19:04;5.30;;;3.83;;
817;SDS011;391;51.052;6.954;2022-10-31T13:21:15;5.13;;;3.67;;
817;SDS011;391;51.052;6.954;2022-10-31T13:23:24;5.83;;;4.53;;
817;SDS011;391;51.052;6.954;2022-10-31T13:25:53;6.13;;;4.47;;
817;SDS011;391;51.052;6.954;2022-10-31T13:27:58;9.13;;;5.10;;
817;SDS011;391;51.052;6.954;2022-10-31T13:30:10;7.93;;;4.80;;
817;SDS011;391;51.052;6.954;2022-10-31T13:32:17;6.13;;;4.07;;
817;SDS011;391;51.052;6.954;2022-10-31T13:34:23;5.23;;;4.70;;
817;SDS011;391;51.052;6.954;2022-10-31T13:36:31;8.53;;;7.47;;
817;SDS011;391;51.052;6.954;2022-10-31T13:38:41;14.63;;;7.80;;
817;SDS011;391;51.052;6.954;2022-10-31T13:40:53;8.87;;;5.57;;
817;SDS011;391;51.052;6.954;2022-10-31T13:43:02;8.00;;;4.40;;
817;SDS011;391;51.052;6.954;2022-10-31T13:45:16;6.57;;;4.40;;
817;SDS011;391;51.052;6.954;2022-10-31T13:47:23;7.60;;;3.90;;
817;SDS011;391;51.052;6.954;2022-10-31T13:49:38;6.60;;;4.90;;
817;SDS011;391;51.052;6.954;2022-10-31T13:51:42;12.13;;;6.27;;
817;SDS011;391;51.052;6.954;2022-10-31T13:53:56;9.10;;;5.30;;
817;SDS011;391;51.052;6.954;2022-10-31T13:56:03;5.27;;;4.60;;